Time;durP1;ratioP1;P1;durP2;ratioP2;P2;SDS_P1;SDS_P2;PMS_P1;PMS_P2;Temp;Humidity;BMP_temperature;BMP_pressure;BME280_temperature;BME280_humidity;BME280_pressure;Samples;Min_cycle;Max_cycle;Signal;HPM_P1;HPM_P2
2023/02/06 00:01:56;;;;;;;31.92;15.50;;;;;;;;;;4996884;28;20442;-77
2023/02/06 00:04:29;;;;;;;36.42;14.23;;;;;;;;;;5006239;28;20903;-77
2023/02/06 00:07:02;;;;;;;28.52;13.85;;;;;;;;;;5008669;28;20413;-79
2023/02/06 00:09:36;;;;;;;37.33;14.38;;;;;;;;;;5015813;28;20432;-77
2023/02/06 00:12:09;;;;;;;31.63;13.18;;;;;;;;;;5002617;28;20440;-78
2023/02/06 00:14:41;;;;;;;28.38;13.23;;;;;;;;;;5013230;28;20461;-77
2023/02/06 00:17:14;;;;;;;31.33;13.07;;;;;;;;;;5004692;28;20420;-79
2023/02/06 00:19:43;;;;;;;30.13;13.95;;;;;;;;;;5002335;28;20425;-77
2023/02/06 00:22:12;;;;;;;28.50;13.63;;;;;;;;;;5001576;28;20415;-78
2023/02/06 00:24:46;;;;;;;27.35;13.52;;;;;;;;;;5017353;28;20430;-77
2023/02/06 00:27:14;;;;;;;29.23;13.52;;;;;;;;;;5020064;28;20920;-77
2023/02/06 00:29:42;;;;;;;31.17;13.25;;;;;;;;;;5004228;28;20430;-76
2023/02/06 00:32:09;;;;;;;26.42;12.57;;;;;;;;;;5000869;28;20432;-77
2023/02/06 00:34:42;;;;;;;32.15;12.95;;;;;;;;;;5010534;28;20889;-77
2023/02/06 00:37:10;;;;;;;25.88;12.48;;;;;;;;;;5016613;28;20429;-77
2023/02/06 00:39:38;;;;;;;28.35;12.25;;;;;;;;;;5011283;28;20435;-77
2023/02/06 00:42:08;;;;;;;27.00;12.23;;;;;;;;;;5009111;28;20415;-77
2023/02/06 00:44:35;;;;;;;25.90;11.88;;;;;;;;;;5009006;28;20412;-79
2023/02/06 00:47:08;;;;;;;24.25;11.57;;;;;;;;;;5005269;28;20428;-78
2023/02/06 00:49:36;;;;;;;32.05;11.80;;;;;;;;;;5015045;28;20441;-77
2023/02/06 00:52:09;;;;;;;26.15;11.82;;;;;;;;;;5018344;28;20437;-76
2023/02/06 00:54:37;;;;;;;22.73;11.10;;;;;;;;;;5015825;28;20433;-78
2023/02/06 00:57:04;;;;;;;31.60;11.45;;;;;;;;;;5002097;28;20441;-79
2023/02/06 00:59:39;;;;;;;25.58;11.00;;;;;;;;;;5023022;28;20990;-78
2023/02/06 01:02:06;;;;;;;26.20;11.68;;;;;;;;;;5010460;28;20400;-77
2023/02/06 01:04:39;;;;;;;24.42;11.23;;;;;;;;;;5006110;28;20770;-77
2023/02/06 01:07:12;;;;;;;25.35;10.95;;;;;;;;;;5003810;28;20432;-78
2023/02/06 01:09:41;;;;;;;27.08;11.13;;;;;;;;;;5000241;28;20429;-77
2023/02/06 01:12:08;;;;;;;22.60;10.85;;;;;;;;;;5016596;28;20897;-78
2023/02/06 01:14:36;;;;;;;23.10;9.83;;;;;;;;;;5006108;28;20423;-78
2023/02/06 01:17:05;;;;;;;23.92;10.20;;;;;;;;;;5007180;28;20411;-78
2023/02/06 01:19:38;;;;;;;28.15;10.30;;;;;;;;;;5009288;28;20433;-78
2023/02/06 01:22:11;;;;;;;20.80;10.25;;;;;;;;;;5003574;28;20463;-78
2023/02/06 01:24:44;;;;;;;24.57;10.43;;;;;;;;;;5002624;28;20432;-78
2023/02/06 01:27:12;;;;;;;26.45;10.68;;;;;;;;;;5000417;28;20999;-78
2023/02/06 01:29:44;;;;;;;28.83;11.23;;;;;;;;;;5008054;28;20429;-77
2023/02/06 01:32:19;;;;;;;26.58;10.95;;;;;;;;;;5007945;28;20432;-79
2023/02/06 01:34:51;;;;;;;24.00;10.38;;;;;;;;;;5008497;28;20434;-78
2023/02/06 01:37:19;;;;;;;28.23;10.30;;;;;;;;;;5009788;28;20430;-77
2023/02/06 01:39:52;;;;;;;22.58;10.52;;;;;;;;;;5006690;28;20445;-78
2023/02/06 01:42:20;;;;;;;23.35;9.90;;;;;;;;;;5003571;28;20432;-79
2023/02/06 01:45:07;;;;;;;24.00;10.10;;;;;;;;;;5020278;28;20430;-77
2023/02/06 01:47:37;;;;;;;25.52;10.27;;;;;;;;;;5011756;28;20423;-78
2023/02/06 01:50:10;;;;;;;22.58;9.68;;;;;;;;;;5003641;28;20921;-78
2023/02/06 01:52:38;;;;;;;30.50;9.95;;;;;;;;;;5006059;28;20428;-78
2023/02/06 01:55:10;;;;;;;25.45;10.02;;;;;;;;;;5005276;28;20898;-79
2023/02/06 01:57:39;;;;;;;20.48;9.43;;;;;;;;;;5012386;28;20914;-79
2023/02/06 02:00:12;;;;;;;25.80;9.63;;;;;;;;;;5021028;28;20909;-78
2023/02/06 02:02:47;;;;;;;23.67;9.77;;;;;;;;;;5010209;28;20458;-78
2023/02/06 02:05:21;;;;;;;23.02;8.82;;;;;;;;;;5020462;28;20414;-78
2023/02/06 02:08:00;;;;;;;18.20;8.65;;;;;;;;;;5007407;28;20877;-77
2023/02/06 02:10:34;;;;;;;17.97;8.30;;;;;;;;;;5004084;28;20411;-77
2023/02/06 02:13:07;;;;;;;20.20;8.38;;;;;;;;;;5002151;28;20439;-79
2023/02/06 02:15:39;;;;;;;25.52;8.85;;;;;;;;;;5005468;28;20825;-78
2023/02/06 02:18:15;;;;;;;21.75;8.85;;;;;;;;;;4999701;28;20457;-78
2023/02/06 02:21:06;;;;;;;21.70;8.23;;;;;;;;;;5000267;28;20442;-78
2023/02/06 02:23:38;;;;;;;22.83;8.60;;;;;;;;;;5000074;28;20422;-78
2023/02/06 02:26:17;;;;;;;18.67;8.30;;;;;;;;;;5017035;28;20441;-79
2023/02/06 02:29:08;;;;;;;28.20;8.73;;;;;;;;;;5015912;28;20441;-78
2023/02/06 02:31:55;;;;;;;20.27;7.55;;;;;;;;;;5002122;28;20432;-78
2023/02/06 02:34:43;;;;;;;21.88;7.88;;;;;;;;;;5005265;28;20440;-78
2023/02/06 02:37:19;;;;;;;20.63;7.87;;;;;;;;;;5018308;28;20429;-79
2023/02/06 02:39:55;;;;;;;18.83;6.65;;;;;;;;;;5007997;28;20930;-78
2023/02/06 02:42:35;;;;;;;19.70;6.88;;;;;;;;;;5020933;28;20883;-78
2023/02/06 02:45:12;;;;;;;17.33;6.20;;;;;;;;;;5003380;28;20423;-80
2023/02/06 02:47:47;;;;;;;16.67;6.57;;;;;;;;;;5005960;28;20790;-79
2023/02/06 02:50:17;;;;;;;18.77;6.35;;;;;;;;;;5016496;28;20500;-79
2023/02/06 02:52:45;;;;;;;15.73;6.22;;;;;;;;;;5014507;28;20457;-79
2023/02/06 02:55:21;;;;;;;20.30;6.40;;;;;;;;;;5017382;28;20424;-79
2023/02/06 02:57:54;;;;;;;14.80;5.88;;;;;;;;;;4998887;28;20919;-79
2023/02/06 03:00:22;;;;;;;19.45;6.25;;;;;;;;;;5003888;28;20467;-79
2023/02/06 03:02:57;;;;;;;18.70;6.23;;;;;;;;;;5003462;28;20508;-79
2023/02/06 03:05:33;;;;;;;15.13;5.93;;;;;;;;;;5017099;28;20957;-80
2023/02/06 03:08:10;;;;;;;18.40;6.10;;;;;;;;;;5017504;28;20426;-79
2023/02/06 03:10:48;;;;;;;15.17;5.30;;;;;;;;;;5004398;28;20969;-78
2023/02/06 03:13:22;;;;;;;14.98;5.25;;;;;;;;;;5001922;28;20888;-79
2023/02/06 03:15:54;;;;;;;13.95;4.90;;;;;;;;;;5015645;28;20430;-79
2023/02/06 03:18:30;;;;;;;17.52;5.38;;;;;;;;;;5004531;28;20437;-79
2023/02/06 03:21:06;;;;;;;14.93;5.15;;;;;;;;;;4998841;28;20438;-79
2023/02/06 03:23:40;;;;;;;15.02;5.32;;;;;;;;;;5004510;28;20431;-80
2023/02/06 03:26:09;;;;;;;19.20;5.45;;;;;;;;;;5008836;28;20431;-80
2023/02/06 03:28:44;;;;;;;19.38;5.82;;;;;;;;;;5002034;28;20428;-80
2023/02/06 03:31:19;;;;;;;18.63;5.35;;;;;;;;;;4994203;28;20469;-80
2023/02/06 03:33:55;;;;;;;18.20;5.20;;;;;;;;;;5000984;28;20800;-79
2023/02/06 03:36:29;;;;;;;16.00;4.87;;;;;;;;;;5007634;28;21232;-80
2023/02/06 03:39:02;;;;;;;18.90;4.82;;;;;;;;;;5004041;28;20925;-80
2023/02/06 03:41:36;;;;;;;16.70;4.55;;;;;;;;;;4993327;28;20441;-80
2023/02/06 03:44:10;;;;;;;18.10;4.60;;;;;;;;;;4997570;28;20908;-79
2023/02/06 03:46:44;;;;;;;15.75;4.38;;;;;;;;;;5005957;28;20440;-80
2023/02/06 03:49:17;;;;;;;13.80;4.43;;;;;;;;;;5000451;28;20427;-80
2023/02/06 03:51:52;;;;;;;14.82;4.65;;;;;;;;;;5018653;28;20810;-79
2023/02/06 03:54:26;;;;;;;11.73;4.47;;;;;;;;;;5014038;28;21053;-80
2023/02/06 03:57:00;;;;;;;17.98;4.70;;;;;;;;;;5000090;28;20432;-80
2023/02/06 03:59:28;;;;;;;14.85;4.45;;;;;;;;;;5006181;28;20428;-80
2023/02/06 04:01:56;;;;;;;19.42;4.88;;;;;;;;;;4999686;28;20436;-79
2023/02/06 04:04:30;;;;;;;20.48;4.47;;;;;;;;;;5003317;28;20430;-80
2023/02/06 04:07:08;;;;;;;15.57;4.10;;;;;;;;;;5015652;28;20434;-80
2023/02/06 04:09:41;;;;;;;15.67;4.07;;;;;;;;;;5010334;28;20412;-79
2023/02/06 04:12:14;;;;;;;15.93;4.72;;;;;;;;;;5012048;28;20433;-79
2023/02/06 04:14:42;;;;;;;14.37;3.93;;;;;;;;;;5009883;28;20441;-79
2023/02/06 04:17:11;;;;;;;14.40;3.92;;;;;;;;;;5006129;28;20428;-79
2023/02/06 04:19:44;;;;;;;16.95;3.88;;;;;;;;;;5009745;28;20443;-81
2023/02/06 04:22:14;;;;;;;21.33;3.55;;;;;;;;;;5006232;28;20436;-80
2023/02/06 04:24:47;;;;;;;12.07;3.53;;;;;;;;;;5005567;28;20467;-80
2023/02/06 04:27:19;;;;;;;11.43;3.70;;;;;;;;;;5005382;28;20436;-80
2023/02/06 04:29:52;;;;;;;14.77;3.80;;;;;;;;;;5020190;28;20427;-81
2023/02/06 04:32:20;;;;;;;20.13;3.58;;;;;;;;;;5006597;28;20965;-79
2023/02/06 04:34:53;;;;;;;21.77;3.88;;;;;;;;;;5010329;28;20425;-80
2023/02/06 04:37:27;;;;;;;14.82;3.58;;;;;;;;;;5003447;28;21147;-80
2023/02/06 04:39:55;;;;;;;13.77;3.67;;;;;;;;;;5003710;28;20435;-80
2023/02/06 04:42:22;;;;;;;16.55;4.07;;;;;;;;;;5006900;28;20424;-80
2023/02/06 04:44:55;;;;;;;12.90;3.50;;;;;;;;;;5010780;28;20440;-80
2023/02/06 04:47:28;;;;;;;12.43;3.60;;;;;;;;;;5005379;28;20439;-80
2023/02/06 04:49:56;;;;;;;15.98;3.83;;;;;;;;;;5021538;28;20427;-81
2023/02/06 04:52:23;;;;;;;12.77;4.00;;;;;;;;;;5007340;28;20421;-80
2023/02/06 04:54:53;;;;;;;14.13;3.33;;;;;;;;;;5010749;28;20425;-81
2023/02/06 04:57:20;;;;;;;13.60;3.90;;;;;;;;;;5006647;28;20428;-80
2023/02/06 04:59:48;;;;;;;13.73;3.58;;;;;;;;;;5025677;28;20439;-81
2023/02/06 05:02:21;;;;;;;16.67;3.70;;;;;;;;;;5008759;28;20435;-82
2023/02/06 05:04:54;;;;;;;12.93;3.70;;;;;;;;;;5014223;28;20426;-80
2023/02/06 05:07:21;;;;;;;17.65;4.20;;;;;;;;;;5007448;28;20443;-81
2023/02/06 05:09:49;;;;;;;16.65;3.80;;;;;;;;;;5005855;28;21072;-80
2023/02/06 05:12:23;;;;;;;13.65;3.45;;;;;;;;;;5007688;28;20444;-80
2023/02/06 05:14:56;;;;;;;18.67;4.28;;;;;;;;;;5008526;28;20433;-80
2023/02/06 05:17:29;;;;;;;17.75;4.25;;;;;;;;;;4997919;28;20960;-81
2023/02/06 05:19:57;;;;;;;13.48;4.03;;;;;;;;;;5003579;28;20421;-80
2023/02/06 05:22:30;;;;;;;18.35;4.65;;;;;;;;;;5009856;28;20425;-81
2023/02/06 05:25:02;;;;;;;18.17;4.53;;;;;;;;;;5007586;28;20435;-80
2023/02/06 05:27:37;;;;;;;21.40;4.25;;;;;;;;;;4998943;28;20457;-80
2023/02/06 05:30:10;;;;;;;15.27;4.00;;;;;;;;;;5021900;28;20431;-80
2023/02/06 05:32:43;;;;;;;21.55;4.82;;;;;;;;;;5005585;28;20421;-80
2023/02/06 05:35:16;;;;;;;17.63;4.37;;;;;;;;;;5003408;28;20435;-80
2023/02/06 05:37:48;;;;;;;14.82;3.70;;;;;;;;;;5010218;28;20445;-80
2023/02/06 05:40:21;;;;;;;15.45;3.50;;;;;;;;;;4996946;28;20894;-81
2023/02/06 05:42:51;;;;;;;13.45;3.70;;;;;;;;;;4999201;28;20430;-80
2023/02/06 05:45:23;;;;;;;17.73;4.25;;;;;;;;;;5002418;28;20426;-81
2023/02/06 05:47:56;;;;;;;11.40;3.70;;;;;;;;;;5002580;28;20911;-80
2023/02/06 05:50:29;;;;;;;18.92;4.45;;;;;;;;;;5008023;28;20427;-80
2023/02/06 05:53:04;;;;;;;16.33;4.45;;;;;;;;;;4997798;28;20421;-82
2023/02/06 05:55:37;;;;;;;19.00;4.30;;;;;;;;;;5011116;28;20440;-82
2023/02/06 05:58:11;;;;;;;11.48;3.63;;;;;;;;;;5020586;28;20446;-82
2023/02/06 06:00:44;;;;;;;19.70;4.25;;;;;;;;;;4995789;28;20430;-80
2023/02/06 06:03:18;;;;;;;13.32;3.42;;;;;;;;;;5001435;28;21606;-81
2023/02/06 06:05:45;;;;;;;15.85;3.92;;;;;;;;;;5000321;28;20785;-80
2023/02/06 06:08:18;;;;;;;13.07;4.15;;;;;;;;;;5006007;28;20426;-80
2023/02/06 06:10:46;;;;;;;12.85;3.67;;;;;;;;;;5027823;28;20767;-82
2023/02/06 06:13:15;;;;;;;16.55;4.00;;;;;;;;;;5005093;28;20426;-82
2023/02/06 06:15:49;;;;;;;18.25;3.88;;;;;;;;;;5000098;28;20432;-80
2023/02/06 06:18:22;;;;;;;21.95;4.35;;;;;;;;;;5006447;28;20431;-81
2023/02/06 06:20:55;;;;;;;17.00;3.93;;;;;;;;;;5004715;28;20532;-80
2023/02/06 06:23:28;;;;;;;13.50;3.70;;;;;;;;;;5007496;28;20817;-80
2023/02/06 06:26:00;;;;;;;15.93;3.83;;;;;;;;;;5018906;28;20431;-79
2023/02/06 06:28:30;;;;;;;19.15;4.00;;;;;;;;;;4997243;28;20785;-81
2023/02/06 06:31:03;;;;;;;12.25;3.70;;;;;;;;;;5007966;28;20786;-80
2023/02/06 06:33:36;;;;;;;16.90;4.25;;;;;;;;;;5000931;28;20433;-80
2023/02/06 06:36:04;;;;;;;20.05;4.75;;;;;;;;;;5008948;28;20436;-81
2023/02/06 06:38:37;;;;;;;14.43;4.10;;;;;;;;;;5001768;28;20430;-81
2023/02/06 06:41:05;;;;;;;17.05;4.05;;;;;;;;;;5008003;28;20437;-80
2023/02/06 06:43:39;;;;;;;15.35;4.30;;;;;;;;;;5002795;28;20438;-80
2023/02/06 06:46:12;;;;;;;19.25;4.50;;;;;;;;;;5024284;28;20436;-81
2023/02/06 06:48:45;;;;;;;32.60;8.73;;;;;;;;;;5007129;28;20434;-80
2023/02/06 06:51:12;;;;;;;29.73;8.70;;;;;;;;;;4999436;28;20429;-80
2023/02/06 06:53:45;;;;;;;19.17;5.47;;;;;;;;;;5005086;28;20531;-80
2023/02/06 06:56:18;;;;;;;25.23;7.87;;;;;;;;;;5004794;28;20433;-82
2023/02/06 06:58:52;;;;;;;25.35;6.88;;;;;;;;;;5004221;28;20424;-81
2023/02/06 07:01:25;;;;;;;19.38;6.22;;;;;;;;;;5003582;28;20432;-80
2023/02/06 07:03:58;;;;;;;18.52;5.30;;;;;;;;;;5001760;28;20434;-79
2023/02/06 07:06:31;;;;;;;19.67;4.97;;;;;;;;;;5005385;28;20426;-81
2023/02/06 07:08:58;;;;;;;17.73;4.40;;;;;;;;;;5008416;28;20428;-80
2023/02/06 07:11:26;;;;;;;14.63;4.10;;;;;;;;;;5021461;28;20433;-80
2023/02/06 07:13:55;;;;;;;18.02;4.22;;;;;;;;;;5005644;28;20448;-80
2023/02/06 07:16:23;;;;;;;21.02;4.53;;;;;;;;;;4998483;28;20776;-80
2023/02/06 07:18:51;;;;;;;17.45;5.35;;;;;;;;;;5002295;28;20428;-80
2023/02/06 07:21:24;;;;;;;16.23;5.03;;;;;;;;;;4998884;28;20421;-82
2023/02/06 07:23:56;;;;;;;16.60;4.40;;;;;;;;;;5020368;28;20443;-81
2023/02/06 07:26:29;;;;;;;19.10;4.32;;;;;;;;;;5007290;28;20431;-80
2023/02/06 07:28:58;;;;;;;18.48;4.63;;;;;;;;;;5004612;28;20436;-79
2023/02/06 07:31:26;;;;;;;17.48;4.45;;;;;;;;;;5013306;28;20430;-79
2023/02/06 07:33:54;;;;;;;22.20;4.77;;;;;;;;;;5009597;28;20435;-81
2023/02/06 07:36:22;;;;;;;16.25;4.85;;;;;;;;;;5001971;28;20442;-82
2023/02/06 07:38:50;;;;;;;17.88;4.80;;;;;;;;;;4997529;28;20433;-82
2023/02/06 07:41:22;;;;;;;20.13;4.75;;;;;;;;;;5006785;28;20434;-82
2023/02/06 07:43:55;;;;;;;15.75;4.75;;;;;;;;;;5000709;28;20439;-81
2023/02/06 07:46:29;;;;;;;18.02;5.20;;;;;;;;;;4999681;28;20435;-81
2023/02/06 07:49:02;;;;;;;19.40;5.28;;;;;;;;;;5002566;28;20433;-81
2023/02/06 07:51:30;;;;;;;20.40;5.22;;;;;;;;;;5002519;28;20437;-81
2023/02/06 07:54:03;;;;;;;22.15;5.93;;;;;;;;;;5001234;28;20459;-82
2023/02/06 07:56:35;;;;;;;19.27;5.32;;;;;;;;;;5005276;28;20412;-81
2023/02/06 07:59:10;;;;;;;19.00;4.72;;;;;;;;;;5019153;28;20424;-80
2023/02/06 08:01:44;;;;;;;24.23;5.03;;;;;;;;;;4999933;28;20436;-83
2023/02/06 08:04:11;;;;;;;20.95;5.03;;;;;;;;;;5004595;28;20935;-84
2023/02/06 08:06:40;;;;;;;22.27;6.18;;;;;;;;;;5002904;28;20465;-82
2023/02/06 08:09:07;;;;;;;20.85;6.50;;;;;;;;;;5016304;28;20422;-83
2023/02/06 08:11:47;;;;;;;22.17;5.97;;;;;;;;;;5021064;28;20421;-85
2023/02/06 08:14:15;;;;;;;21.75;5.68;;;;;;;;;;4997506;28;20997;-81
2023/02/06 08:16:50;;;;;;;13.38;4.85;;;;;;;;;;5001232;28;20468;-82
2023/02/06 08:19:23;;;;;;;17.27;5.30;;;;;;;;;;4998032;28;20448;-84
2023/02/06 08:21:55;;;;;;;19.07;5.80;;;;;;;;;;4999641;28;20428;-83
2023/02/06 08:24:28;;;;;;;19.92;5.50;;;;;;;;;;4999337;28;20447;-84
2023/02/06 08:26:56;;;;;;;17.85;5.32;;;;;;;;;;4996948;28;20445;-83
2023/02/06 08:29:24;;;;;;;22.30;6.07;;;;;;;;;;4999720;28;20434;-85
2023/02/06 08:31:58;;;;;;;18.05;5.18;;;;;;;;;;5000785;28;20438;-83
2023/02/06 08:34:26;;;;;;;16.70;5.10;;;;;;;;;;4999593;28;20930;-83
2023/02/06 08:36:53;;;;;;;20.60;5.20;;;;;;;;;;5000138;28;20426;-85
2023/02/06 08:39:21;;;;;;;17.17;5.05;;;;;;;;;;5000743;28;20425;-85
2023/02/06 08:41:49;;;;;;;21.27;5.55;;;;;;;;;;4996178;28;21000;-82
2023/02/06 08:44:17;;;;;;;16.75;5.28;;;;;;;;;;5001391;28;20439;-82
2023/02/06 08:46:47;;;;;;;19.00;5.28;;;;;;;;;;4999996;28;20436;-83
2023/02/06 08:49:17;;;;;;;20.70;5.53;;;;;;;;;;5014651;28;20436;-82
2023/02/06 08:51:45;;;;;;;25.88;5.90;;;;;;;;;;4998736;28;20431;-83
2023/02/06 08:54:19;;;;;;;18.23;5.47;;;;;;;;;;5001504;28;20450;-84
2023/02/06 08:56:47;;;;;;;23.38;5.38;;;;;;;;;;5016919;28;21314;-82
2023/02/06 08:59:20;;;;;;;19.33;5.55;;;;;;;;;;5000685;28;20443;-82
2023/02/06 09:01:53;;;;;;;17.07;4.77;;;;;;;;;;5002335;28;20445;-81
2023/02/06 09:04:22;;;;;;;16.13;5.00;;;;;;;;;;4999421;28;20466;-83
2023/02/06 09:06:50;;;;;;;21.33;4.97;;;;;;;;;;4995214;28;20433;-82
2023/02/06 09:09:23;;;;;;;19.02;5.28;;;;;;;;;;5000565;28;20436;-83
2023/02/06 09:12:00;;;;;;;18.15;5.35;;;;;;;;;;5002127;28;20441;-83
2023/02/06 09:14:28;;;;;;;21.80;5.72;;;;;;;;;;5002405;28;20443;-82
2023/02/06 09:17:01;;;;;;;21.25;5.53;;;;;;;;;;4997139;28;20428;-81
2023/02/06 09:19:35;;;;;;;22.58;5.97;;;;;;;;;;4994553;28;20438;-81
2023/02/06 09:22:03;;;;;;;17.27;4.95;;;;;;;;;;4989611;28;20454;-83
2023/02/06 09:24:31;;;;;;;19.93;5.40;;;;;;;;;;4997726;28;21506;-83
2023/02/06 09:27:04;;;;;;;23.58;5.55;;;;;;;;;;5021358;28;20434;-81
2023/02/06 09:29:37;;;;;;;15.07;5.18;;;;;;;;;;4999734;28;20420;-82
2023/02/06 09:32:05;;;;;;;20.10;5.50;;;;;;;;;;4998787;28;20435;-82
2023/02/06 09:34:39;;;;;;;18.65;5.40;;;;;;;;;;5001623;28;20432;-82
2023/02/06 09:37:07;;;;;;;20.73;5.45;;;;;;;;;;4998009;28;20427;-82
2023/02/06 09:39:40;;;;;;;17.83;5.63;;;;;;;;;;4996421;28;20445;-82
2023/02/06 09:42:12;;;;;;;15.85;5.25;;;;;;;;;;4996408;28;20440;-82
2023/02/06 09:44:48;;;;;;;18.95;5.45;;;;;;;;;;4998960;28;20441;-83
2023/02/06 09:47:20;;;;;;;20.08;5.60;;;;;;;;;;5014533;28;20459;-83
2023/02/06 09:49:56;;;;;;;21.93;6.20;;;;;;;;;;4996939;28;20443;-83
2023/02/06 09:52:30;;;;;;;17.65;5.63;;;;;;;;;;5011380;28;20439;-81
2023/02/06 09:55:07;;;;;;;18.03;5.37;;;;;;;;;;4990209;28;20538;-81
2023/02/06 09:57:45;;;;;;;17.42;5.93;;;;;;;;;;4991710;28;20444;-81
2023/02/06 10:00:28;;;;;;;16.48;5.35;;;;;;;;;;4993491;28;20417;-82
2023/02/06 10:03:02;;;;;;;21.40;6.70;;;;;;;;;;4994703;28;20436;-82
2023/02/06 10:05:39;;;;;;;17.50;5.60;;;;;;;;;;4991387;28;20428;-82
2023/02/06 10:08:12;;;;;;;15.18;5.32;;;;;;;;;;4993687;28;20477;-83
2023/02/06 10:10:47;;;;;;;18.00;5.82;;;;;;;;;;4997118;28;20423;-82
2023/02/06 10:13:22;;;;;;;18.33;4.97;;;;;;;;;;4993945;28;20431;-82
2023/02/06 10:15:51;;;;;;;10.85;4.30;;;;;;;;;;4992031;28;20429;-81
2023/02/06 10:18:24;;;;;;;13.15;4.50;;;;;;;;;;4992160;28;20427;-81
2023/02/06 10:21:00;;;;;;;10.27;4.50;;;;;;;;;;4994772;28;20437;-82
2023/02/06 10:23:32;;;;;;;9.05;3.83;;;;;;;;;;4998921;28;20904;-82
2023/02/06 10:26:11;;;;;;;11.25;3.30;;;;;;;;;;5009841;28;20448;-81
2023/02/06 10:28:40;;;;;;;10.97;3.57;;;;;;;;;;4998384;28;20438;-81
2023/02/06 10:31:32;;;;;;;11.25;3.42;;;;;;;;;;4994102;28;20434;-81
2023/02/06 10:34:17;;;;;;;10.57;3.58;;;;;;;;;;4970843;28;20444;-81
2023/02/06 10:36:56;;;;;;;8.73;3.50;;;;;;;;;;4992768;28;20435;-82
2023/02/06 10:39:38;;;;;;;11.35;3.40;;;;;;;;;;5007927;28;21105;-85
2023/02/06 10:42:15;;;;;;;9.93;3.20;;;;;;;;;;4989697;28;20997;-81
2023/02/06 10:44:51;;;;;;;9.10;3.40;;;;;;;;;;4990734;28;21167;-81
2023/02/06 10:47:29;;;;;;;9.57;3.60;;;;;;;;;;4998559;28;20439;-85
2023/02/06 10:50:07;;;;;;;14.35;3.75;;;;;;;;;;5009130;28;20438;-81
2023/02/06 10:52:36;;;;;;;9.82;3.53;;;;;;;;;;4992114;28;20435;-81
2023/02/06 10:55:12;;;;;;;12.75;3.97;;;;;;;;;;4984645;28;20429;-81
2023/02/06 10:57:42;;;;;;;12.68;4.57;;;;;;;;;;4981544;28;20471;-81
2023/02/06 11:00:19;;;;;;;14.30;5.30;;;;;;;;;;4990323;28;20432;-81
2023/02/06 11:02:55;;;;;;;13.65;5.05;;;;;;;;;;4986940;28;20440;-81
2023/02/06 11:05:29;;;;;;;13.65;5.05;;;;;;;;;;4993546;28;20434;-81
2023/02/06 11:08:09;;;;;;;11.38;5.10;;;;;;;;;;5007172;28;20430;-82
2023/02/06 11:10:42;;;;;;;13.10;5.35;;;;;;;;;;4997321;28;20432;-82
2023/02/06 11:13:20;;;;;;;13.48;4.32;;;;;;;;;;4991900;28;20431;-81
2023/02/06 11:15:57;;;;;;;14.23;5.15;;;;;;;;;;4994174;28;20438;-82
2023/02/06 11:18:31;;;;;;;12.85;4.78;;;;;;;;;;4997704;28;20443;-82
2023/02/06 11:20:59;;;;;;;11.30;4.72;;;;;;;;;;5000230;28;20434;-81
2023/02/06 11:23:33;;;;;;;12.00;4.80;;;;;;;;;;5001005;28;21380;-81
2023/02/06 11:26:07;;;;;;;11.35;4.80;;;;;;;;;;4995340;28;20448;-81
2023/02/06 11:28:48;;;;;;;11.38;4.47;;;;;;;;;;5014352;28;20439;-81
2023/02/06 11:31:37;;;;;;;15.43;5.15;;;;;;;;;;4999771;28;20423;-82
2023/02/06 11:34:19;;;;;;;12.70;5.38;;;;;;;;;;5001475;28;20424;-81
2023/02/06 11:36:50;;;;;;;14.45;5.93;;;;;;;;;;4997197;28;20437;-81
2023/02/06 11:39:29;;;;;;;12.57;5.75;;;;;;;;;;4993504;28;22055;-81
2023/02/06 11:42:04;;;;;;;12.57;5.82;;;;;;;;;;5002087;28;20439;-81
2023/02/06 11:44:38;;;;;;;12.55;5.50;;;;;;;;;;5012469;28;20436;-82
2023/02/06 11:47:19;;;;;;;13.15;6.15;;;;;;;;;;4996809;28;20438;-81
2023/02/06 11:49:47;;;;;;;14.70;6.20;;;;;;;;;;4997424;28;20423;-81
2023/02/06 11:52:27;;;;;;;13.82;5.68;;;;;;;;;;4993682;28;20443;-82
2023/02/06 11:55:01;;;;;;;14.30;5.80;;;;;;;;;;4994877;28;20954;-80
2023/02/06 11:57:34;;;;;;;13.05;5.55;;;;;;;;;;4995844;28;20426;-81
2023/02/06 12:00:19;;;;;;;18.17;6.53;;;;;;;;;;4998299;28;20443;-81
2023/02/06 12:02:53;;;;;;;13.60;6.22;;;;;;;;;;4994189;28;20475;-82
2023/02/06 12:05:24;;;;;;;13.32;6.03;;;;;;;;;;5000352;28;20781;-81
2023/02/06 12:07:59;;;;;;;13.13;5.57;;;;;;;;;;4999447;28;21856;-82
2023/02/06 12:10:36;;;;;;;13.73;4.65;;;;;;;;;;5000539;28;20060;-82
2023/02/06 12:13:07;;;;;;;8.07;4.05;;;;;;;;;;4997099;28;20062;-82
2023/02/06 12:15:42;;;;;;;10.87;4.43;;;;;;;;;;5004939;28;20045;-81
2023/02/06 12:18:17;;;;;;;10.23;4.13;;;;;;;;;;4999164;28;20469;-82
2023/02/06 12:20:48;;;;;;;12.10;5.22;;;;;;;;;;5002243;28;20062;-80
2023/02/06 12:23:18;;;;;;;11.25;4.72;;;;;;;;;;5000688;28;20060;-79
2023/02/06 12:25:48;;;;;;;13.10;5.18;;;;;;;;;;4999899;28;20046;-81
2023/02/06 12:28:18;;;;;;;5.97;2.97;;;;;;;;;;5001980;28;20073;-80
2023/02/06 12:30:49;;;;;;;7.38;2.95;;;;;;;;;;5008676;28;20045;-80
2023/02/06 12:33:20;;;;;;;14.05;4.68;;;;;;;;;;5005866;28;20057;-80
2023/02/06 12:35:55;;;;;;;5.18;2.70;;;;;;;;;;5007983;28;20060;-80
2023/02/06 12:38:32;;;;;;;13.40;4.22;;;;;;;;;;5013594;28;20060;-79
2023/02/06 12:41:08;;;;;;;6.97;2.83;;;;;;;;;;5004747;28;20053;-81
2023/02/06 12:43:42;;;;;;;7.50;3.13;;;;;;;;;;5005951;28;20053;-80
2023/02/06 12:46:13;;;;;;;9.10;4.28;;;;;;;;;;5004424;28;20045;-80
2023/02/06 12:48:49;;;;;;;9.32;2.92;;;;;;;;;;5004365;28;20057;-82
2023/02/06 12:51:19;;;;;;;13.40;4.70;;;;;;;;;;5017485;28;20049;-81
2023/02/06 12:53:56;;;;;;;13.90;4.57;;;;;;;;;;4997354;28;20054;-79
2023/02/06 12:56:33;;;;;;;10.87;4.33;;;;;;;;;;4995570;28;20815;-81
2023/02/06 12:59:17;;;;;;;11.70;4.93;;;;;;;;;;5004866;28;20061;-81
2023/02/06 13:01:50;;;;;;;10.02;4.43;;;;;;;;;;5002972;28;20061;-79
2023/02/06 13:04:24;;;;;;;9.10;4.13;;;;;;;;;;5003801;28;20116;-81
2023/02/06 13:06:54;;;;;;;10.23;5.03;;;;;;;;;;5003508;28;20045;-81
2023/02/06 13:09:29;;;;;;;7.75;3.55;;;;;;;;;;5002921;28;20069;-80
2023/02/06 13:12:11;;;;;;;11.85;4.00;;;;;;;;;;5004648;28;20528;-79
2023/02/06 13:14:39;;;;;;;;;;;;;;;;;;4984894;28;20066;-80
2023/02/06 13:17:08;;;;;;;;;;;;;;;;;;5007582;28;20389;-79
2023/02/06 13:19:51;;;;;;;8.50;3.72;;;;;;;;;;5008783;28;19929;-80
2023/02/06 13:22:31;;;;;;;5.55;3.17;;;;;;;;;;5002096;28;20074;-81
2023/02/06 13:25:18;;;;;;;6.43;2.90;;;;;;;;;;5005889;28;20068;-81
2023/02/06 13:27:53;;;;;;;10.15;3.72;;;;;;;;;;4999461;28;20058;-80
2023/02/06 13:30:41;;;;;;;6.70;3.25;;;;;;;;;;5000146;28;20052;-79
2023/02/06 13:33:15;;;;;;;5.60;3.05;;;;;;;;;;5003298;28;20050;-80
2023/02/06 13:35:55;;;;;;;9.85;3.55;;;;;;;;;;5001403;28;20048;-80
2023/02/06 13:38:35;;;;;;;6.57;3.05;;;;;;;;;;5000897;28;20096;-82
2023/02/06 13:41:19;;;;;;;8.63;3.33;;;;;;;;;;5009772;28;20056;-80
2023/02/06 13:43:55;;;;;;;10.88;3.60;;;;;;;;;;5003756;28;21057;-80
2023/02/06 13:46:36;;;;;;;7.80;2.67;;;;;;;;;;5018068;28;20058;-79
2023/02/06 13:49:11;;;;;;;7.28;2.67;;;;;;;;;;4999279;28;20050;-80
2023/02/06 13:51:49;;;;;;;3.90;2.03;;;;;;;;;;5007422;28;20046;-79
2023/02/06 13:54:37;;;;;;;7.15;3.17;;;;;;;;;;4997087;28;20890;-82
2023/02/06 13:57:16;;;;;;;5.18;2.47;;;;;;;;;;5002842;28;20053;-79
2023/02/06 13:59:52;;;;;;;4.22;2.15;;;;;;;;;;5001026;28;20111;-79
2023/02/06 14:02:28;;;;;;;10.80;2.72;;;;;;;;;;5001141;28;20057;-79
2023/02/06 14:05:02;;;;;;;10.70;2.80;;;;;;;;;;5002033;28;20402;-79
2023/02/06 14:07:37;;;;;;;7.40;2.33;;;;;;;;;;5006019;28;20296;-80
2023/02/06 14:13:14;;;;;;;3.92;1.88;;;;;;;;;;5007016;28;20080;-79
2023/02/06 14:15:51;;;;;;;5.13;1.75;;;;;;;;;;4978434;28;20065;-79
2023/02/06 14:18:26;;;;;;;3.17;1.45;;;;;;;;;;4996869;28;20061;-79
2023/02/06 14:21:03;;;;;;;3.42;1.70;;;;;;;;;;4998371;28;20517;-79
2023/02/06 14:23:37;;;;;;;3.78;1.65;;;;;;;;;;5001754;28;20057;-79
2023/02/06 14:26:15;;;;;;;6.80;2.00;;;;;;;;;;5001081;28;20042;-78
2023/02/06 14:28:46;;;;;;;1.95;1.15;;;;;;;;;;5013734;28;20069;-79
2023/02/06 14:31:19;;;;;;;5.13;1.40;;;;;;;;;;5011735;28;20057;-78
2023/02/06 14:33:59;;;;;;;6.88;1.73;;;;;;;;;;5012260;28;20430;-79
2023/02/06 14:36:38;;;;;;;5.20;2.03;;;;;;;;;;5001264;28;20244;-78
2023/02/06 14:39:30;;;;;;;4.13;1.38;;;;;;;;;;5003249;28;20049;-79
2023/02/06 14:42:07;;;;;;;6.07;1.25;;;;;;;;;;4997694;28;20521;-79
2023/02/06 14:44:42;;;;;;;5.18;1.88;;;;;;;;;;4995651;28;20063;-78
2023/02/06 14:47:18;;;;;;;3.13;1.75;;;;;;;;;;4992753;28;20579;-78
2023/02/06 14:49:47;;;;;;;4.00;1.45;;;;;;;;;;4994504;28;20058;-78
2023/02/06 14:52:23;;;;;;;7.97;1.80;;;;;;;;;;4999617;28;20062;-79
2023/02/06 14:54:56;;;;;;;5.53;1.55;;;;;;;;;;4999627;28;20065;-79
2023/02/06 14:57:29;;;;;;;4.85;1.33;;;;;;;;;;4994619;28;20065;-80
2023/02/06 14:59:59;;;;;;;7.10;1.42;;;;;;;;;;4991337;28;20065;-80
2023/02/06 15:02:34;;;;;;;4.70;1.33;;;;;;;;;;4996282;28;20065;-78
2023/02/06 15:05:03;;;;;;;2.97;1.17;;;;;;;;;;5000255;28;20057;-76
2023/02/06 15:07:32;;;;;;;2.33;1.20;;;;;;;;;;4993972;28;22311;-79
2023/02/06 15:10:04;;;;;;;4.57;1.88;;;;;;;;;;4992849;28;20053;-79